createdAt,value
2018-08-22T00:01:12.009Z,956.25
2018-08-22T00:03:38.317Z,956.33
2018-08-22T00:06:04.637Z,956.32
2018-08-22T00:08:30.956Z,956.27
2018-08-22T00:10:57.271Z,956.26
2018-08-22T00:13:23.588Z,956.25
2018-08-22T00:15:49.893Z,956.27
2018-08-22T00:18:16.216Z,956.18
2018-08-22T00:20:42.534Z,956.25
2018-08-22T00:23:08.885Z,956.23
2018-08-22T00:25:35.197Z,956.21
2018-08-22T00:28:01.542Z,956.26
2018-08-22T00:30:27.891Z,956.23
2018-08-22T00:32:54.245Z,956.26
2018-08-22T00:35:23.337Z,956.23
2018-08-22T00:37:49.667Z,956.29
2018-08-22T00:40:16.060Z,956.26
2018-08-22T00:42:42.354Z,956.30
2018-08-22T00:45:08.697Z,956.30
2018-08-22T00:47:35.034Z,956.33
2018-08-22T00:50:01.411Z,956.34
2018-08-22T00:52:27.741Z,956.37
2018-08-22T00:54:54.066Z,956.38
2018-08-22T00:57:20.414Z,956.37
2018-08-22T00:59:46.789Z,956.33
2018-08-22T01:02:13.139Z,956.39
2018-08-22T01:04:39.491Z,956.36
2018-08-22T01:07:05.817Z,956.41
2018-08-22T01:09:32.198Z,956.39
2018-08-22T01:11:58.506Z,956.40
2018-08-22T01:14:24.847Z,956.44
2018-08-22T01:16:51.202Z,956.45
2018-08-22T01:19:17.528Z,956.41
2018-08-22T01:21:43.895Z,956.46
2018-08-22T01:24:10.250Z,956.46
2018-08-22T01:26:36.583Z,956.42
2018-08-22T01:29:02.938Z,956.49
2018-08-22T01:31:29.271Z,956.44
2018-08-22T01:33:55.614Z,956.46
2018-08-22T01:36:21.983Z,956.56
2018-08-22T01:38:48.308Z,956.51
2018-08-22T01:41:14.627Z,956.51
2018-08-22T01:43:41.003Z,956.41
2018-08-22T01:46:07.312Z,956.43
2018-08-22T01:48:33.633Z,956.39
2018-08-22T01:50:59.988Z,956.36
2018-08-22T01:53:26.300Z,956.46
2018-08-22T01:55:52.623Z,956.39
2018-08-22T01:58:18.949Z,956.49
2018-08-22T02:00:45.281Z,956.52
2018-08-22T02:03:11.611Z,956.49
2018-08-22T02:05:37.932Z,956.54
2018-08-22T02:08:04.286Z,956.51
2018-08-22T02:10:30.644Z,956.50
2018-08-22T02:12:56.980Z,956.50
2018-08-22T02:15:23.310Z,956.47
2018-08-22T02:17:49.695Z,956.54
2018-08-22T02:20:15.951Z,956.56
2018-08-22T02:22:42.269Z,956.58
2018-08-22T02:25:08.617Z,956.55
2018-08-22T02:27:34.906Z,956.52
2018-08-22T02:32:46.664Z,956.52
2018-08-22T02:35:12.984Z,956.53
2018-08-22T02:37:39.347Z,956.56
2018-08-22T02:40:05.680Z,956.57
2018-08-22T02:42:32.033Z,956.53
2018-08-22T02:44:58.401Z,956.60
2018-08-22T02:47:24.734Z,956.56
2018-08-22T02:49:51.055Z,956.56
2018-08-22T02:52:17.380Z,956.53
2018-08-22T02:54:43.724Z,956.52
2018-08-22T02:57:10.038Z,956.52
2018-08-22T02:59:36.389Z,956.53
2018-08-22T03:02:02.703Z,956.61
2018-08-22T03:04:29.052Z,956.64
2018-08-22T03:06:55.369Z,956.68
2018-08-22T03:09:21.689Z,956.66
2018-08-22T03:11:48.003Z,956.70
2018-08-22T03:14:14.367Z,956.65
2018-08-22T03:16:40.655Z,956.68
2018-08-22T03:19:06.974Z,956.69
2018-08-22T03:21:33.299Z,956.63
2018-08-22T03:23:59.634Z,956.67
2018-08-22T03:26:25.950Z,956.68
2018-08-22T03:28:52.265Z,956.69
2018-08-22T03:31:18.585Z,956.67
2018-08-22T03:33:44.905Z,956.79
2018-08-22T03:36:11.218Z,956.78
2018-08-22T03:38:37.553Z,956.78
2018-08-22T03:41:03.869Z,956.82
2018-08-22T03:43:30.177Z,956.88
2018-08-22T03:45:56.495Z,956.97
2018-08-22T03:48:22.816Z,956.90
2018-08-22T03:50:49.206Z,956.95
2018-08-22T03:53:15.556Z,956.98
2018-08-22T03:55:41.888Z,957.04
2018-08-22T03:58:08.213Z,957.07
2018-08-22T04:00:34.532Z,957.08
2018-08-22T04:03:00.843Z,957.12
2018-08-22T04:05:27.158Z,957.09
2018-08-22T04:07:53.482Z,957.01
2018-08-22T04:10:19.805Z,957.07
2018-08-22T04:12:46.145Z,957.04
2018-08-22T04:15:12.458Z,957.17
2018-08-22T04:17:38.768Z,957.15
2018-08-22T04:20:05.072Z,957.22
2018-08-22T04:22:31.389Z,957.23
2018-08-22T04:24:57.723Z,957.29
2018-08-22T04:27:24.040Z,957.28
2018-08-22T04:29:50.352Z,957.34
2018-08-22T04:32:16.673Z,957.29
2018-08-22T04:34:42.984Z,957.29
2018-08-22T04:37:09.290Z,957.28
2018-08-22T04:39:35.646Z,957.35
2018-08-22T04:42:02.003Z,957.33
2018-08-22T04:44:28.271Z,957.28
2018-08-22T04:46:54.584Z,957.35
2018-08-22T04:49:20.929Z,957.33
2018-08-22T04:51:47.247Z,957.37
2018-08-22T04:54:13.559Z,957.39
2018-08-22T04:56:39.872Z,957.40
2018-08-22T04:59:06.183Z,957.41
2018-08-22T05:01:32.498Z,957.38
2018-08-22T05:03:59.081Z,957.39
2018-08-22T05:06:25.394Z,957.44
2018-08-22T05:08:51.915Z,957.41
2018-08-22T05:11:18.062Z,957.37
2018-08-22T05:13:44.375Z,957.36
2018-08-22T05:16:10.681Z,957.33
2018-08-22T05:18:36.991Z,957.33
2018-08-22T05:21:03.348Z,957.30
2018-08-22T05:23:29.624Z,957.41
2018-08-22T05:25:55.945Z,957.36
2018-08-22T05:28:22.268Z,957.32
2018-08-22T05:30:48.586Z,957.38
2018-08-22T05:33:14.891Z,957.37
2018-08-22T05:35:41.208Z,957.39
2018-08-22T05:38:07.519Z,957.42
2018-08-22T05:40:33.897Z,957.52
2018-08-22T05:43:00.163Z,957.43
2018-08-22T05:45:26.477Z,957.40
2018-08-22T05:47:52.784Z,957.47
2018-08-22T05:50:19.107Z,957.47
2018-08-22T05:52:45.411Z,957.41
2018-08-22T05:55:11.730Z,957.39
2018-08-22T05:57:38.137Z,957.44
2018-08-22T06:00:04.475Z,957.40
2018-08-22T06:02:30.809Z,957.43
2018-08-22T06:04:57.159Z,957.38
2018-08-22T06:07:23.493Z,957.39
2018-08-22T06:09:49.808Z,957.38
2018-08-22T06:12:16.123Z,957.46
2018-08-22T06:14:42.466Z,957.41
2018-08-22T06:17:08.793Z,957.57
2018-08-22T06:19:35.111Z,957.47
2018-08-22T06:22:01.429Z,957.48
2018-08-22T06:24:27.751Z,957.46
2018-08-22T06:26:54.104Z,957.42
2018-08-22T06:29:20.426Z,957.52
2018-08-22T06:31:46.747Z,957.54
2018-08-22T06:34:13.058Z,957.49
2018-08-22T06:36:39.386Z,957.56
2018-08-22T06:39:05.712Z,957.54
2018-08-22T06:41:32.032Z,957.54
2018-08-22T06:43:58.345Z,957.52
2018-08-22T06:46:24.660Z,957.54
2018-08-22T06:48:50.985Z,957.57
2018-08-22T06:51:17.297Z,957.51
2018-08-22T06:53:43.627Z,957.53
2018-08-22T06:56:09.938Z,957.56
2018-08-22T06:58:36.254Z,957.53
2018-08-22T07:01:02.575Z,957.57
2018-08-22T07:03:28.901Z,957.59
2018-08-22T07:05:55.220Z,957.62
2018-08-22T07:08:21.616Z,957.62
2018-08-22T07:10:47.926Z,957.58
2018-08-22T07:13:14.493Z,957.56
2018-08-22T07:15:40.813Z,957.52
2018-08-22T07:18:07.116Z,957.49
2018-08-22T07:20:33.432Z,957.54
2018-08-22T07:22:59.760Z,957.46
2018-08-22T07:48:43.447Z,957.40
2018-08-22T07:51:09.788Z,957.37
2018-08-22T07:53:36.125Z,957.40
2018-08-22T07:56:02.447Z,957.38
2018-08-22T07:58:28.790Z,957.39
2018-08-22T08:00:55.112Z,957.43
2018-08-22T08:03:21.457Z,957.34
2018-08-22T08:05:47.782Z,957.29
2018-08-22T08:08:14.095Z,957.35
2018-08-22T08:10:40.434Z,957.34
2018-08-22T08:13:06.748Z,957.34
2018-08-22T08:15:33.078Z,957.37
2018-08-22T08:17:59.390Z,957.29
2018-08-22T08:20:25.757Z,957.26
2018-08-22T08:22:52.120Z,957.29
2018-08-22T08:25:18.481Z,957.33
2018-08-22T08:27:44.819Z,957.26
2018-08-22T08:30:11.167Z,957.22
2018-08-22T08:32:37.490Z,957.26
2018-08-22T08:35:03.801Z,957.32
2018-08-22T08:37:30.120Z,957.19
2018-08-22T08:39:56.439Z,957.24
2018-08-22T08:42:22.789Z,957.18
2018-08-22T08:44:49.090Z,957.17
2018-08-22T08:47:15.409Z,957.22
2018-08-22T08:49:41.833Z,957.12
2018-08-22T08:52:08.075Z,957.09
2018-08-22T08:54:34.396Z,957.09
2018-08-22T08:57:00.724Z,957.03
2018-08-22T08:59:27.059Z,957.05
2018-08-22T09:01:53.370Z,957.00
2018-08-22T09:04:19.705Z,956.98
2018-08-22T09:06:46.025Z,956.98
2018-08-22T09:09:12.384Z,956.92
2018-08-22T09:11:38.719Z,956.99
2018-08-22T09:14:06.014Z,956.91
2018-08-22T09:16:32.364Z,956.93
2018-08-22T09:18:58.715Z,956.93
2018-08-22T09:21:25.058Z,956.89
2018-08-22T09:23:51.337Z,956.82
2018-08-22T09:26:17.657Z,956.88
2018-08-22T09:28:43.978Z,956.77
2018-08-22T09:31:10.325Z,956.79
2018-08-22T09:33:36.660Z,956.72
2018-08-22T09:36:02.961Z,956.57
2018-08-22T09:38:29.279Z,956.62
2018-08-22T09:40:55.628Z,956.64
2018-08-22T09:43:22.004Z,956.58
2018-08-22T09:45:48.283Z,956.57
2018-08-22T09:48:14.614Z,956.46
2018-08-22T09:50:40.944Z,956.53
2018-08-22T09:53:07.224Z,956.53
2018-08-22T09:55:33.546Z,956.44
2018-08-22T09:57:59.902Z,956.50
2018-08-22T10:00:26.181Z,956.42
2018-08-22T10:02:52.512Z,956.51
2018-08-22T10:05:24.446Z,956.44
2018-08-22T10:07:50.702Z,956.40
2018-08-22T10:10:17.074Z,956.37
2018-08-22T10:12:43.360Z,956.33
2018-08-22T10:15:09.649Z,956.40
2018-08-22T10:17:35.975Z,956.43
2018-08-22T10:20:02.301Z,956.37
2018-08-22T10:22:28.634Z,956.32
2018-08-22T10:24:54.967Z,956.37
2018-08-22T10:27:21.302Z,956.23
2018-08-22T10:29:47.615Z,956.16
2018-08-22T10:32:13.959Z,956.23
2018-08-22T10:34:40.326Z,956.14
2018-08-22T10:37:06.660Z,956.09
2018-08-22T10:39:33.008Z,956.08
2018-08-22T10:41:59.312Z,956.02
2018-08-22T10:44:25.660Z,956.09
2018-08-22T10:46:51.951Z,956.19
2018-08-22T10:49:18.273Z,956.12
2018-08-22T10:51:44.593Z,956.10
2018-08-22T10:54:10.920Z,956.10
2018-08-22T10:56:37.285Z,956.04
2018-08-22T10:59:03.599Z,955.96
2018-08-22T11:01:29.935Z,956.04
2018-08-22T11:03:56.276Z,955.94
2018-08-22T11:06:22.583Z,955.98
2018-08-22T11:08:48.906Z,956.00
2018-08-22T11:11:15.234Z,955.92
2018-08-22T11:13:41.595Z,955.81
2018-08-22T11:16:07.940Z,955.85
2018-08-22T11:18:34.239Z,955.93
2018-08-22T11:21:00.568Z,955.85
2018-08-22T11:23:26.924Z,955.84
2018-08-22T11:25:53.284Z,955.73
2018-08-22T11:28:19.611Z,955.82
2018-08-22T11:30:45.978Z,955.79
2018-08-22T11:33:12.333Z,955.87
2018-08-22T11:35:38.648Z,955.78
2018-08-22T11:38:04.979Z,955.89
2018-08-22T11:40:31.323Z,955.71
2018-08-22T11:42:57.652Z,955.90
2018-08-22T11:45:23.972Z,955.82
2018-08-22T11:47:50.287Z,955.60
2018-08-22T11:50:16.597Z,955.59
2018-08-22T11:52:42.955Z,955.63
2018-08-22T11:55:09.273Z,955.77
2018-08-22T11:57:35.588Z,955.68
2018-08-22T12:00:01.942Z,955.55
2018-08-22T12:02:28.267Z,955.54
2018-08-22T12:04:54.587Z,955.49
2018-08-22T12:07:20.944Z,955.55
2018-08-22T12:09:47.259Z,955.55
2018-08-22T12:12:13.596Z,955.55
2018-08-22T12:14:39.915Z,955.47
2018-08-22T12:17:06.236Z,955.48
2018-08-22T12:19:32.559Z,955.45
2018-08-22T12:22:06.036Z,955.37
2018-08-22T12:24:26.141Z,955.36
2018-08-22T12:26:55.109Z,955.37
2018-08-22T12:29:19.613Z,955.39
2018-08-22T12:31:45.937Z,955.36
2018-08-22T12:34:12.271Z,955.31
2018-08-22T12:36:38.588Z,955.20
2018-08-22T12:39:04.918Z,955.26
2018-08-22T12:41:31.442Z,955.18
2018-08-22T12:44:05.526Z,955.26
2018-08-22T12:46:26.194Z,955.27
2018-08-22T12:48:52.515Z,955.22
2018-08-22T12:51:18.859Z,955.23
2018-08-22T12:53:45.236Z,955.27
2018-08-22T12:56:11.552Z,955.33
2018-08-22T12:58:37.855Z,955.18
2018-08-22T13:01:04.173Z,955.19
2018-08-22T13:03:30.496Z,955.19
2018-08-22T13:05:56.811Z,955.12
2018-08-22T13:08:23.123Z,955.11
2018-08-22T13:10:49.445Z,955.05
2018-08-22T13:16:01.287Z,955.18
2018-08-22T13:18:27.614Z,955.09
2018-08-22T13:20:53.948Z,955.00
2018-08-22T13:23:20.287Z,955.08
2018-08-22T13:25:49.574Z,955.11
2018-08-22T13:28:15.845Z,955.05
2018-08-22T13:30:42.172Z,955.01
2018-08-22T13:33:08.499Z,955.03
2018-08-22T13:35:34.831Z,954.96
2018-08-22T13:38:01.139Z,955.21
2018-08-22T13:40:31.628Z,955.09
2018-08-22T13:42:55.429Z,955.05
2018-08-22T13:45:21.741Z,955.03
2018-08-22T13:47:48.067Z,954.97
2018-08-22T13:50:14.400Z,955.02
2018-08-22T13:52:40.751Z,955.07
2018-08-22T13:55:07.077Z,955.12
2018-08-22T13:57:35.544Z,955.02
2018-08-22T14:00:00.735Z,955.00
2018-08-22T14:02:27.025Z,955.01
2018-08-22T14:04:54.546Z,955.00
2018-08-22T14:07:20.802Z,955.02
2018-08-22T14:09:47.141Z,954.97
2018-08-22T14:12:13.450Z,954.92
2018-08-22T14:14:42.556Z,954.90
2018-08-22T14:17:08.891Z,954.92
2018-08-22T14:19:35.218Z,954.88
2018-08-22T14:22:01.576Z,954.89
2018-08-22T14:24:27.867Z,954.83
2018-08-22T14:26:54.191Z,954.83
2018-08-22T14:29:20.529Z,954.78
2018-08-22T14:31:46.842Z,954.72
2018-08-22T14:34:13.198Z,954.78
2018-08-22T14:36:39.551Z,954.79
2018-08-22T14:39:05.869Z,954.76
2018-08-22T14:41:32.545Z,954.79
2018-08-22T14:43:58.837Z,954.77
2018-08-22T14:46:25.149Z,954.78
2018-08-22T14:48:51.466Z,954.81
2018-08-22T14:51:17.817Z,954.82
2018-08-22T14:53:44.142Z,954.78
2018-08-22T14:56:10.503Z,954.82
2018-08-22T14:58:36.799Z,954.84
2018-08-22T15:01:03.137Z,954.85
2018-08-22T15:03:29.632Z,954.80
2018-08-22T15:05:55.784Z,954.83
2018-08-22T15:08:22.122Z,954.84
2018-08-22T15:10:48.450Z,954.80
2018-08-22T15:13:14.776Z,954.79
2018-08-22T15:15:41.131Z,954.82
2018-08-22T15:18:07.438Z,954.75
2018-08-22T15:20:33.758Z,954.85
2018-08-22T15:23:00.131Z,954.77
2018-08-22T15:25:26.495Z,954.73
2018-08-22T15:27:52.817Z,954.75
2018-08-22T15:30:19.184Z,954.70
2018-08-22T15:32:45.499Z,954.72
2018-08-22T15:35:11.832Z,954.76
2018-08-22T15:37:38.164Z,954.75
2018-08-22T15:40:04.491Z,954.77
2018-08-22T15:42:30.829Z,954.83
2018-08-22T15:45:01.035Z,954.79
2018-08-22T15:47:24.507Z,954.85
2018-08-22T15:49:50.747Z,954.83
2018-08-22T15:52:17.132Z,954.81
2018-08-22T15:54:43.436Z,954.85
2018-08-22T15:57:09.780Z,954.86
2018-08-22T15:59:36.137Z,954.87
2018-08-22T16:02:02.495Z,954.87
2018-08-22T16:04:28.825Z,954.81
2018-08-22T16:06:55.145Z,954.84
2018-08-22T16:09:21.463Z,954.81
2018-08-22T16:11:47.805Z,954.82
2018-08-22T16:14:14.133Z,954.76
2018-08-22T16:16:40.465Z,954.86
2018-08-22T16:19:06.801Z,954.85
2018-08-22T16:21:33.166Z,954.79
2018-08-22T16:23:59.516Z,954.85
2018-08-22T16:26:25.850Z,954.89
2018-08-22T16:28:52.194Z,954.89
2018-08-22T16:31:18.567Z,954.76
2018-08-22T16:33:44.849Z,954.86
2018-08-22T16:36:11.176Z,954.90
2018-08-22T16:38:37.496Z,954.87
2018-08-22T16:41:03.832Z,954.89
2018-08-22T16:43:30.148Z,954.89
2018-08-22T16:45:56.499Z,954.94
2018-08-22T16:48:22.832Z,954.92
2018-08-22T16:50:49.159Z,954.94
2018-08-22T16:53:15.510Z,955.02
2018-08-22T16:55:41.937Z,954.95
2018-08-22T16:58:08.267Z,955.01
2018-08-22T17:00:34.645Z,954.97
2018-08-22T17:03:00.980Z,955.06
2018-08-22T17:05:27.323Z,955.07
2018-08-22T17:07:53.721Z,955.08
2018-08-22T17:10:19.993Z,955.07
2018-08-22T17:12:46.335Z,955.11
2018-08-22T17:15:12.700Z,955.13
2018-08-22T17:17:39.014Z,955.12
2018-08-22T17:20:05.331Z,955.11
2018-08-22T17:22:31.649Z,955.19
2018-08-22T17:24:57.982Z,955.18
2018-08-22T17:27:24.354Z,955.16
2018-08-22T17:29:50.674Z,955.18
2018-08-22T17:32:16.999Z,955.18
2018-08-22T17:34:43.330Z,955.19
2018-08-22T17:37:09.648Z,955.27
2018-08-22T17:39:35.969Z,955.28
2018-08-22T17:42:02.292Z,955.34
2018-08-22T17:44:28.637Z,955.41
2018-08-22T17:46:54.956Z,955.40
2018-08-22T17:49:21.322Z,955.45
2018-08-22T17:51:47.659Z,955.55
2018-08-22T17:54:14.024Z,955.58
2018-08-22T17:56:40.324Z,955.61
2018-08-22T17:59:06.632Z,955.59
2018-08-22T18:01:33.197Z,955.67
2018-08-22T18:03:59.520Z,955.65
2018-08-22T18:06:26.038Z,955.66
2018-08-22T18:08:52.280Z,955.68
2018-08-22T18:11:18.589Z,955.72
2018-08-22T18:13:44.995Z,955.75
2018-08-22T18:16:11.323Z,955.78
2018-08-22T18:18:37.742Z,955.75
2018-08-22T18:21:04.091Z,955.79
2018-08-22T18:23:30.423Z,955.89
2018-08-22T18:25:56.757Z,955.83
2018-08-22T18:28:23.111Z,955.88
2018-08-22T18:30:49.461Z,955.86
2018-08-22T18:33:15.791Z,955.92
2018-08-22T18:35:42.111Z,956.02
2018-08-22T18:38:08.459Z,956.01
2018-08-22T18:40:34.799Z,956.01
2018-08-22T18:43:01.134Z,956.07
2018-08-22T18:45:27.442Z,956.01
2018-08-22T18:47:53.822Z,956.02
2018-08-22T18:50:20.123Z,956.06
2018-08-22T18:52:46.497Z,956.00
2018-08-22T18:55:12.857Z,956.11
2018-08-22T18:57:39.173Z,956.09
2018-08-22T19:00:05.515Z,956.14
2018-08-22T19:02:31.848Z,956.14
2018-08-22T19:04:58.190Z,956.17
2018-08-22T19:07:24.504Z,956.14
2018-08-22T19:09:50.815Z,956.10
2018-08-22T19:12:17.142Z,956.10
2018-08-22T19:14:43.458Z,956.08
2018-08-22T19:17:09.781Z,956.11
2018-08-22T19:19:36.109Z,956.07
2018-08-22T19:22:02.494Z,956.10
2018-08-22T19:24:28.810Z,956.13
2018-08-22T19:26:55.194Z,956.11
2018-08-22T19:29:21.526Z,956.15
2018-08-22T19:31:47.858Z,956.13
2018-08-22T19:34:14.177Z,956.11
2018-08-22T19:36:40.497Z,956.09
2018-08-22T19:39:06.867Z,956.16
2018-08-22T19:41:33.240Z,956.10
2018-08-22T19:43:59.584Z,956.13
2018-08-22T19:46:25.901Z,956.15
2018-08-22T19:48:52.273Z,956.16
2018-08-22T19:51:18.597Z,956.13
2018-08-22T19:53:44.919Z,956.09
2018-08-22T19:56:11.273Z,956.14
2018-08-22T19:58:37.579Z,956.08
2018-08-22T20:01:03.892Z,956.12
2018-08-22T20:03:30.221Z,956.08
2018-08-22T20:05:56.552Z,956.13
2018-08-22T20:08:22.877Z,956.01
2018-08-22T20:10:49.215Z,956.03
2018-08-22T20:13:15.534Z,956.06
2018-08-22T20:15:41.876Z,956.06
2018-08-22T20:18:08.195Z,956.00
2018-08-22T20:20:34.559Z,956.02
2018-08-22T20:23:00.918Z,956.02
2018-08-22T20:25:27.195Z,956.01
2018-08-22T20:27:53.522Z,956.01
2018-08-22T20:30:19.863Z,956.01
2018-08-22T20:32:46.187Z,956.00
2018-08-22T20:35:12.467Z,955.97
2018-08-22T20:37:38.804Z,955.99
2018-08-22T20:40:05.122Z,956.01
2018-08-22T20:42:31.560Z,956.03
2018-08-22T20:44:57.861Z,956.02
2018-08-22T20:47:24.187Z,956.02
2018-08-22T20:49:50.520Z,956.06
2018-08-22T20:52:16.854Z,956.08
2018-08-22T20:54:43.218Z,956.09
2018-08-22T20:57:09.526Z,956.10
2018-08-22T20:59:35.926Z,956.06
2018-08-22T21:02:02.313Z,956.19
2018-08-22T21:04:28.598Z,956.17
2018-08-22T21:06:54.934Z,956.20
2018-08-22T21:09:21.244Z,956.30
2018-08-22T21:11:47.592Z,956.22
2018-08-22T21:14:13.938Z,956.21
2018-08-22T21:16:40.258Z,956.30
2018-08-22T21:19:06.583Z,956.36
2018-08-22T21:21:32.906Z,956.34
2018-08-22T21:23:59.214Z,956.34
2018-08-22T21:26:25.522Z,956.31
2018-08-22T21:28:51.839Z,956.35
2018-08-22T21:31:18.174Z,956.46
2018-08-22T21:33:44.494Z,956.39
2018-08-22T21:36:10.820Z,956.41
2018-08-22T21:38:37.132Z,956.41
2018-08-22T21:41:03.444Z,956.43
2018-08-22T21:43:29.784Z,956.50
2018-08-22T21:45:56.099Z,956.55
2018-08-22T21:48:22.412Z,956.51
2018-08-22T21:50:48.731Z,956.53
2018-08-22T21:53:15.049Z,956.49
2018-08-22T21:55:41.360Z,956.60
2018-08-22T21:58:07.671Z,956.60
2018-08-22T22:00:34.024Z,956.67
2018-08-22T22:03:00.358Z,956.70
2018-08-22T22:05:26.717Z,956.71
2018-08-22T22:07:53.127Z,956.82
2018-08-22T22:10:19.438Z,956.81
2018-08-22T22:12:45.753Z,956.76
2018-08-22T22:15:12.109Z,956.81
2018-08-22T22:17:38.417Z,956.80
2018-08-22T22:20:04.743Z,956.80
2018-08-22T22:22:31.047Z,956.76
2018-08-22T22:24:57.394Z,956.75
2018-08-22T22:27:23.708Z,956.84
2018-08-22T22:29:50.037Z,956.83
2018-08-22T22:32:16.392Z,956.83
2018-08-22T22:34:42.704Z,956.83
2018-08-22T22:37:09.026Z,956.78
2018-08-22T22:39:35.404Z,956.77
2018-08-22T22:42:01.733Z,956.79
2018-08-22T22:44:28.056Z,956.76
2018-08-22T22:46:54.384Z,956.74
2018-08-22T22:49:20.704Z,956.68
2018-08-22T22:51:47.027Z,956.70
2018-08-22T22:54:13.351Z,956.71
2018-08-22T22:56:39.685Z,956.60
2018-08-22T22:59:06.012Z,956.64
2018-08-22T23:01:32.420Z,956.64
2018-08-22T23:03:58.801Z,956.70
2018-08-22T23:06:25.108Z,956.61
2018-08-22T23:08:51.436Z,956.50
2018-08-22T23:11:17.767Z,956.46
2018-08-22T23:13:44.108Z,956.51
2018-08-22T23:16:10.411Z,956.53
2018-08-22T23:18:36.820Z,956.53
2018-08-22T23:21:03.039Z,956.60
2018-08-22T23:23:30.249Z,956.55
2018-08-22T23:25:56.585Z,956.60
2018-08-22T23:28:23.037Z,956.58
2018-08-22T23:30:49.360Z,956.59
2018-08-22T23:33:15.690Z,956.52
2018-08-22T23:35:42.011Z,956.52
2018-08-22T23:38:08.360Z,956.48
2018-08-22T23:40:34.697Z,956.46
2018-08-22T23:43:01.072Z,956.49
2018-08-22T23:45:27.349Z,956.53
2018-08-22T23:47:53.672Z,956.56
2018-08-22T23:50:19.982Z,956.60
2018-08-22T23:52:46.297Z,956.63
2018-08-22T23:55:12.620Z,956.63
2018-08-22T23:57:38.939Z,956.65
